Lancaster, Massachusetts
Current Conditions -  °F | °C
As of 3:52 AM on Monday 20 Oct 2014 (Local Time) from KFIT Reporting Station
Clear Clear  
Wind Chill: 36°   Ceiling: Unl
Heat Index: 36°   Visibility: 10mi
Dew Point: 26°   Wind: 0mph
Humidity: 67%   Direction: NA
Pressure: 30.01"   Gusts: NA
Location:  42.46°N, 71.67°W
Report Text: KFIT 200752Z AUTO 00000KT 10SM CLR 02/M03 A3001 RMK AO2 SLP165 T00221033 TSNO
Loading
Personal Weather Stations






























Interactive Weather Map
Tropical Storm Tracking
New forecast layout! Learn more

10-Day Weather Forecast

Advertisements
Track Severe Weather on mobile